createdAt,value
2023-10-04T00:01:44.773Z,98638.84
2023-10-04T00:06:47.948Z,98635.72
2023-10-04T00:11:49.849Z,98641.84
2023-10-04T00:16:52.470Z,98630.16
2023-10-04T00:21:54.322Z,98626.19
2023-10-04T00:26:56.182Z,98619.16
2023-10-04T00:31:58.168Z,98610.31
2023-10-04T00:37:00.172Z,98605.06
2023-10-04T00:42:02.169Z,98584.66
2023-10-04T00:47:06.701Z,98573.34
2023-10-04T00:52:09.654Z,98567.16
2023-10-04T00:57:12.132Z,98564.84
2023-10-04T01:02:14.509Z,98588.66
2023-10-04T01:07:17.930Z,98605.81
2023-10-04T01:12:23.845Z,98614.41
2023-10-04T01:17:29.333Z,98614.66
2023-10-04T01:22:33.180Z,98618.06
2023-10-04T01:27:40.016Z,98623.06
2023-10-04T01:32:42.012Z,98619.34
2023-10-04T01:37:43.907Z,98630.16
2023-10-04T01:42:47.007Z,98632.31
2023-10-04T01:47:50.573Z,98637.88
2023-10-04T01:52:52.487Z,98647.34
2023-10-04T01:57:54.337Z,98654.97
2023-10-04T02:02:56.343Z,98662.44
2023-10-04T02:08:01.108Z,98668.94
2023-10-04T02:13:08.212Z,98669.38
2023-10-04T02:18:10.308Z,98668.41
2023-10-04T02:23:13.262Z,98667.06
2023-10-04T02:28:25.232Z,98662.22
2023-10-04T02:33:39.852Z,98671.56
2023-10-04T02:38:42.514Z,98658.97
2023-10-04T02:43:44.526Z,98668.75
2023-10-04T02:48:48.946Z,98673.13
2023-10-04T02:53:51.274Z,98667.19
2023-10-04T02:58:53.302Z,98667.66
2023-10-04T03:03:55.275Z,98675.72
2023-10-04T03:09:00.084Z,98675.66
2023-10-04T03:14:03.633Z,98673.06
2023-10-04T03:19:08.801Z,98679.91
2023-10-04T03:24:12.116Z,98688.22
2023-10-04T03:29:17.133Z,98685.41
2023-10-04T03:34:19.600Z,98680.03
2023-10-04T03:39:27.334Z,98686.50
2023-10-04T03:44:30.401Z,98695.56
2023-10-04T03:49:33.752Z,98702.22
2023-10-04T03:54:37.661Z,98698.44
2023-10-04T03:59:40.092Z,98711.06
2023-10-04T04:04:42.671Z,98696.72
2023-10-04T04:09:45.675Z,98703.66
2023-10-04T04:14:47.668Z,98699.56
2023-10-04T04:19:53.600Z,98694.38
2023-10-04T04:24:56.502Z,98692.56
2023-10-04T04:29:58.407Z,98698.38
2023-10-04T04:35:00.536Z,98703.19
2023-10-04T04:40:03.528Z,98704.28
2023-10-04T04:45:23.408Z,98704.84
2023-10-04T04:50:26.689Z,98704.34
2023-10-04T04:55:29.855Z,98700.97
2023-10-04T05:00:35.210Z,98707.53
2023-10-04T05:05:38.347Z,98708.03
2023-10-04T05:10:41.222Z,98708.56
2023-10-04T05:15:44.040Z,98705.22
2023-10-04T05:20:51.462Z,98709.91
2023-10-04T05:25:55.031Z,98713.19
2023-10-04T05:30:57.266Z,98716.97
2023-10-04T05:36:01.445Z,98720.16
2023-10-04T05:41:04.989Z,98712.16
2023-10-04T05:46:08.494Z,98720.53
2023-10-04T05:51:10.666Z,98723.03
2023-10-04T05:56:12.517Z,98718.56
2023-10-04T06:01:19.103Z,98723.69
2023-10-04T06:06:21.437Z,98725.22
2023-10-04T06:11:23.317Z,98728.06
2023-10-04T06:16:25.222Z,98740.09
2023-10-04T06:21:27.338Z,98750.38
2023-10-04T06:26:29.221Z,98751.78
2023-10-04T06:31:31.151Z,98760.97
2023-10-04T06:36:33.108Z,98768.03
2023-10-04T06:41:35.000Z,98762.00
2023-10-04T06:46:37.597Z,98790.72
2023-10-04T06:51:39.574Z,98791.91
2023-10-04T06:56:41.588Z,98796.69
2023-10-04T07:01:43.437Z,98806.84
2023-10-04T07:06:45.479Z,98808.00
2023-10-04T07:11:47.337Z,98810.63
2023-10-04T07:16:49.945Z,98818.16
2023-10-04T07:21:51.803Z,98828.09
2023-10-04T07:26:57.025Z,98829.75
2023-10-04T07:31:59.017Z,98825.00
2023-10-04T07:37:00.923Z,98836.56
2023-10-04T07:42:03.517Z,98844.41
2023-10-04T07:47:05.935Z,98841.31
2023-10-04T07:52:08.586Z,98846.50
2023-10-04T07:57:11.281Z,98849.41
2023-10-04T08:02:14.363Z,98838.34
2023-10-04T08:07:19.538Z,98834.59
2023-10-04T08:12:21.553Z,98835.25
2023-10-04T08:17:25.185Z,98840.81
2023-10-04T08:22:27.121Z,98839.84
2023-10-04T08:27:29.277Z,98844.59
2023-10-04T08:32:31.707Z,98845.22
2023-10-04T08:37:33.601Z,98850.31
2023-10-04T08:42:36.740Z,98863.19
2023-10-04T08:47:40.218Z,98850.56
2023-10-04T08:52:43.521Z,98842.69
2023-10-04T08:57:45.909Z,98835.66
2023-10-04T09:02:47.847Z,98837.22
2023-10-04T09:07:51.525Z,98843.09
2023-10-04T09:12:59.584Z,98846.13
2023-10-04T09:18:04.400Z,98843.56
2023-10-04T09:23:17.451Z,98832.66
2023-10-04T09:28:19.729Z,98842.19
2023-10-04T09:33:29.938Z,98843.31
2023-10-04T09:38:33.059Z,98864.91
2023-10-04T09:43:37.239Z,98858.06
2023-10-04T09:48:46.228Z,98855.25
2023-10-04T09:53:48.454Z,98836.25
2023-10-04T09:58:54.875Z,98841.94
2023-10-04T10:03:58.652Z,98847.94
2023-10-04T10:09:04.439Z,98856.38
2023-10-04T10:14:11.133Z,98856.53
2023-10-04T10:19:14.122Z,98862.53
2023-10-04T10:24:16.104Z,98855.34
2023-10-04T10:29:22.234Z,98852.56
2023-10-04T10:34:24.227Z,98861.25
2023-10-04T10:39:29.782Z,98850.28
2023-10-04T10:44:36.025Z,98855.25
2023-10-04T10:49:42.568Z,98849.31
2023-10-04T10:54:45.513Z,98844.47
2023-10-04T10:59:49.728Z,98836.91
2023-10-04T11:04:53.221Z,98839.69
2023-10-04T11:09:57.844Z,98822.94
2023-10-04T11:14:59.853Z,98816.47
2023-10-04T11:20:05.515Z,98828.44
2023-10-04T11:25:09.936Z,98816.69
2023-10-04T11:30:15.146Z,98805.53
2023-10-04T11:35:19.982Z,98810.78
2023-10-04T11:40:30.677Z,98810.78
2023-10-04T11:45:33.746Z,98811.13
2023-10-04T11:50:47.245Z,98807.34
2023-10-04T11:55:57.949Z,98809.81
2023-10-04T12:01:07.864Z,98802.94
2023-10-04T12:06:10.112Z,98804.59
2023-10-04T12:11:15.254Z,98799.41
2023-10-04T12:16:21.626Z,98811.44
2023-10-04T12:21:24.239Z,98807.28
2023-10-04T12:26:27.676Z,98818.50
2023-10-04T12:31:32.402Z,98819.97
2023-10-04T12:36:54.464Z,98812.59
2023-10-04T12:42:00.417Z,98821.22
2023-10-04T12:47:03.865Z,98820.84
2023-10-04T12:52:06.180Z,98816.94
2023-10-04T12:57:08.158Z,98813.34
2023-10-04T13:02:10.256Z,98811.00
2023-10-04T13:07:12.204Z,98804.28
2023-10-04T13:12:14.051Z,98807.50
2023-10-04T13:17:15.929Z,98811.09
2023-10-04T13:22:17.772Z,98798.41
2023-10-04T13:27:19.877Z,98795.09
2023-10-04T13:32:22.427Z,98787.94
2023-10-04T13:37:24.467Z,98791.91
2023-10-04T13:42:29.212Z,98792.84
2023-10-04T13:47:31.674Z,98780.84
2023-10-04T13:52:33.604Z,98776.47
2023-10-04T13:57:35.512Z,98784.34
2023-10-04T14:02:37.678Z,98785.19
2023-10-04T14:07:40.433Z,98785.00
2023-10-04T14:12:42.356Z,98783.16
2023-10-04T14:17:44.313Z,98777.22
2023-10-04T14:22:46.719Z,98771.06
2023-10-04T14:27:49.440Z,98775.72
2023-10-04T14:32:52.996Z,98773.84
2023-10-04T14:37:55.071Z,98769.94
2023-10-04T14:42:58.284Z,98766.84
2023-10-04T14:48:00.531Z,98763.47
2023-10-04T14:53:02.835Z,98764.72
2023-10-04T14:58:05.007Z,98761.72
2023-10-04T15:03:07.177Z,98753.81
2023-10-04T15:08:10.202Z,98750.34
2023-10-04T15:13:12.110Z,98741.53
2023-10-04T15:18:14.012Z,98747.78
2023-10-04T15:23:17.371Z,98751.97
2023-10-04T15:28:19.328Z,98755.91
2023-10-04T15:33:21.423Z,98746.66
2023-10-04T15:38:23.249Z,98748.50
2023-10-04T15:43:25.070Z,98750.03
2023-10-04T15:48:27.569Z,98737.31
2023-10-04T15:53:29.952Z,98727.44
2023-10-04T15:58:32.969Z,98742.22
2023-10-04T16:03:36.463Z,98750.78
2023-10-04T16:08:38.498Z,98760.41
2023-10-04T16:13:40.455Z,98757.69
2023-10-04T16:18:42.490Z,98759.44
2023-10-04T16:23:44.425Z,98762.94
2023-10-04T16:28:46.666Z,98758.94
2023-10-04T16:33:48.549Z,98751.81
2023-10-04T16:38:50.553Z,98762.53
2023-10-04T16:43:52.521Z,98758.38
2023-10-04T16:48:56.697Z,98763.50
2023-10-04T16:53:58.880Z,98757.66
2023-10-04T16:59:02.245Z,98757.78
2023-10-04T17:04:05.727Z,98750.09
2023-10-04T17:09:07.845Z,98764.41
2023-10-04T17:14:10.105Z,98761.59
2023-10-04T17:19:13.179Z,98762.22
2023-10-04T17:24:15.009Z,98757.31
2023-10-04T17:29:17.268Z,98766.88
2023-10-04T17:34:19.221Z,98771.44
2023-10-04T17:39:21.144Z,98760.31
2023-10-04T17:44:23.056Z,98741.31
2023-10-04T17:49:25.421Z,98752.44
2023-10-04T17:54:27.411Z,98746.16
2023-10-04T17:59:29.273Z,98746.91
2023-10-04T18:04:31.377Z,98747.00
2023-10-04T18:09:33.525Z,98747.44
2023-10-04T18:14:35.420Z,98750.31
2023-10-04T18:19:37.487Z,98746.44
2023-10-04T18:24:39.544Z,98734.94
2023-10-04T18:29:41.580Z,98740.94
2023-10-04T18:34:43.427Z,98739.09
2023-10-04T18:39:45.318Z,98736.25
2023-10-04T18:44:47.426Z,98737.81
2023-10-04T18:49:49.727Z,98741.38
2023-10-04T18:54:51.732Z,98732.00
2023-10-04T18:59:55.185Z,98732.88
2023-10-04T19:05:05.471Z,98731.84
2023-10-04T19:10:11.359Z,98735.63
2023-10-04T19:15:16.065Z,98728.81
2023-10-04T19:20:20.874Z,98734.72
2023-10-04T19:25:22.765Z,98741.06
2023-10-04T19:30:25.649Z,98741.53
2023-10-04T19:35:27.633Z,98747.59
2023-10-04T19:40:29.519Z,98756.38
2023-10-04T19:45:32.390Z,98755.41
2023-10-04T19:50:34.727Z,98746.81
2023-10-04T19:55:37.563Z,98746.84
2023-10-04T20:00:43.679Z,98741.09
2023-10-04T20:05:46.456Z,98724.97
2023-10-04T20:10:49.137Z,98727.06
2023-10-04T20:15:51.253Z,98727.47
2023-10-04T20:20:57.858Z,98734.44
2023-10-04T20:26:00.445Z,98731.56
2023-10-04T20:31:05.315Z,98723.78
2023-10-04T20:36:07.392Z,98720.75
2023-10-04T20:41:09.263Z,98718.72
2023-10-04T20:46:11.839Z,98721.03
2023-10-04T20:51:13.775Z,98713.28
2023-10-04T20:56:15.674Z,98719.41
2023-10-04T21:01:18.157Z,98703.44
2023-10-04T21:06:20.274Z,98716.00
2023-10-04T21:11:22.205Z,98722.56
2023-10-04T21:16:24.240Z,98718.38
2023-10-04T21:21:26.163Z,98716.47
2023-10-04T21:26:28.113Z,98725.06
2023-10-04T21:31:30.644Z,98721.78
2023-10-04T21:36:32.905Z,98721.53
2023-10-04T21:41:42.821Z,98715.81
2023-10-04T21:46:45.723Z,98719.47
2023-10-04T21:52:05.679Z,98713.88
2023-10-04T21:57:08.678Z,98705.00
2023-10-04T22:02:14.107Z,98699.41
2023-10-04T22:07:22.134Z,98686.47
2023-10-04T22:12:25.665Z,98683.19
2023-10-04T22:17:27.537Z,98678.81
2023-10-04T22:22:29.401Z,98671.63
2023-10-04T22:27:31.624Z,98655.41
2023-10-04T22:32:33.770Z,98661.94
2023-10-04T22:37:35.625Z,98653.75
2023-10-04T22:42:38.645Z,98645.03
2023-10-04T22:47:41.344Z,98642.03
2023-10-04T22:52:44.396Z,98640.09
2023-10-04T22:57:47.197Z,98631.50
2023-10-04T23:02:50.081Z,98635.97
2023-10-04T23:07:52.936Z,98627.00
2023-10-04T23:12:58.528Z,98614.47
2023-10-04T23:18:14.888Z,98625.38
2023-10-04T23:23:16.930Z,98617.75
2023-10-04T23:28:19.318Z,98611.34
2023-10-04T23:33:21.679Z,98611.44
2023-10-04T23:38:32.618Z,98618.94
2023-10-04T23:43:40.627Z,98622.06
2023-10-04T23:48:42.702Z,98622.47
2023-10-04T23:53:45.507Z,98615.13
2023-10-04T23:58:48.284Z,98616.88
